YHID

Details ICAO YHID (HID)
Name Horn Island
Region Australia
Timezone Australia/Brisbane (UTC+10.0)
Plans Departing 210
Arriving 219
Stats Elevation 43 ft / 13 m (AMSL)
Location -10.585700° 142.290000°
Runways 2
Magnetic Variation 4.796° E
Sunrise 2019-12-14 20:04:51 UTC / 2019-12-15 06:04:51 Local
Sunset 2019-12-15 08:49:04 UTC / 2019-12-15 18:49:04 Local
Advertisement - Login to hide

Runways

ID Width Length Bearing (true/mag) Surface Threshold Overrun Markings Lighting
08 102 ft / 31 m 4,565 ft / 1,392 m 84.80° / 80.00° ASPHALT 0 ft / 0 m 66 ft / 20 m APP
14 75 ft / 23 m 4,082 ft / 1,244 m 139.90° / 135.10° ASPHALT 0 ft / 0 m 190 ft / 58 m VISUAL
26 102 ft / 31 m 4,565 ft / 1,392 m 264.80° / 260.00° ASPHALT 0 ft / 0 m 200 ft / 61 m APP
32 75 ft / 23 m 4,082 ft / 1,244 m 319.90° / 315.10° ASPHALT 0 ft / 0 m 0 ft / 0 m VISUAL

Map

Weather


0- 5 10 15 20 25 30 35+ Temperature / °C

Clouds and Precipitation
Forecast for 2019-12-15 00:00 UTC. Updated 4 hours ago

Ground ~20,000 ft ~40,000 ft Winds

METAR

YHID 150130Z AUTO 36007KT 330V030 9999 // SCT033 SCT046 SCT056 32/25 Q1009

TAF

TAF YHID 142304Z 1500/1600 02010KT 9999 SCT020 FM150800 VRB03KT 9999 SCT015 SCT025 FM152200 08010KT 9999 SCT020

Frequencies

Unicom 120.30 MHz BRISBANE CENTRE MULT
Unicom 126.50 MHz Horn Island MULT
Unicom 119.60 MHz ACTIVATE LIGHTS ONLY MULT
Warning: Do not use this data for real-world aviation or navigation. No guarantee of current accuracy is given.